Time;durP1;ratioP1;P1;durP2;ratioP2;P2;SDS_P1;SDS_P2;PMS_P1;PMS_P2;Temp;Humidity;BMP_temperature;BMP_pressure;BME280_temperature;BME280_humidity;BME280_pressure;Samples;Min_cycle;Max_cycle;Signal;HPM_P1;HPM_P2
2023/04/07 00:00:08;;;;;;;4.72;3.03;;;;;;;23.55;33.79;99414.41;4346885;33;35069;-61
2023/04/07 00:02:38;;;;;;;5.82;3.17;;;;;;;23.55;33.82;99419.00;4350604;32;33574;-60
2023/04/07 00:05:06;;;;;;;4.55;3.03;;;;;;;23.53;33.79;99413.78;4346856;33;34051;-61
2023/04/07 00:07:33;;;;;;;6.70;3.25;;;;;;;23.52;33.80;99414.03;4346565;33;34012;-61
2023/04/07 00:10:11;;;;;;;5.70;3.15;;;;;;;23.52;33.87;99406.69;4346985;33;34232;-60
2023/04/07 00:12:39;;;;;;;6.07;2.65;;;;;;;23.52;33.96;99403.97;4346762;33;34469;-60
2023/04/07 00:15:07;;;;;;;5.30;3.20;;;;;;;23.53;33.99;99408.34;4346588;33;33840;-61
2023/04/07 00:17:35;;;;;;;5.18;3.12;;;;;;;23.53;33.98;99404.78;4346408;32;34033;-61
2023/04/07 00:20:03;;;;;;;6.12;3.08;;;;;;;23.52;33.99;99408.59;4346593;33;34257;-60
2023/04/07 00:22:30;;;;;;;6.47;3.80;;;;;;;23.50;34.02;99414.28;4346509;33;34155;-61
2023/04/07 00:24:58;;;;;;;6.55;3.58;;;;;;;23.51;34.01;99410.47;4346691;33;33843;-61
2023/04/07 00:27:25;;;;;;;6.75;3.15;;;;;;;23.51;34.04;99412.38;4346359;33;34432;-61
2023/04/07 00:29:54;;;;;;;5.82;3.33;;;;;;;23.50;34.09;99410.69;4346401;33;34274;-61
2023/04/07 00:32:22;;;;;;;6.87;3.30;;;;;;;23.49;34.08;99407.16;4346605;33;33616;-60
2023/04/07 00:34:49;;;;;;;6.00;3.30;;;;;;;23.47;34.08;99395.69;4346572;33;34804;-61
2023/04/07 00:37:18;;;;;;;5.25;3.03;;;;;;;23.47;34.04;99398.41;4346474;33;33648;-61
2023/04/07 00:39:46;;;;;;;6.93;3.15;;;;;;;23.47;34.08;99395.69;4346544;33;34999;-60
2023/04/07 00:42:13;;;;;;;5.10;3.22;;;;;;;23.46;34.10;99395.94;4333123;33;33878;-61
2023/04/07 00:44:41;;;;;;;4.78;2.72;;;;;;;23.45;34.12;99400.50;4346252;33;35377;-61
2023/04/07 00:47:09;;;;;;;5.85;3.20;;;;;;;23.44;34.14;99393.41;4346384;33;35003;-61
2023/04/07 00:49:36;;;;;;;5.75;2.78;;;;;;;23.43;34.16;99389.88;4332947;33;34224;-61
2023/04/07 00:52:05;;;;;;;9.60;3.47;;;;;;;23.42;34.16;99390.94;4346360;33;33325;-61
2023/04/07 00:54:33;;;;;;;4.37;2.95;;;;;;;23.40;34.20;99390.34;4346573;33;33833;-61
2023/04/07 00:57:00;;;;;;;6.00;3.22;;;;;;;23.41;34.19;99388.47;4346273;33;33812;-60
2023/04/07 00:59:30;;;;;;;5.82;3.45;;;;;;;23.40;34.18;99390.34;4332967;33;34699;-61
2023/04/07 01:02:18;;;;;;;6.10;3.00;;;;;;;23.39;34.20;99380.50;4333319;33;33709;-61
2023/04/07 01:04:52;;;;;;;6.03;3.22;;;;;;;23.41;34.20;99380.31;4333181;33;33932;-60
2023/04/07 01:08:05;;;;;;;4.82;3.05;;;;;;;23.38;34.22;99369.88;4345961;33;34058;-60
2023/04/07 01:10:39;;;;;;;4.65;3.03;;;;;;;23.40;34.19;99367.72;4332030;33;34129;-60
2023/04/07 01:13:32;;;;;;;7.45;3.05;;;;;;;23.36;34.27;99374.69;4346353;33;34313;-60
2023/04/07 01:16:04;;;;;;;5.03;3.10;;;;;;;23.35;34.25;99365.72;4346040;33;34821;-60
2023/04/07 01:18:34;;;;;;;6.95;3.25;;;;;;;23.34;34.28;99360.50;4333051;33;34101;-60
2023/04/07 01:21:06;;;;;;;6.35;2.85;;;;;;;23.32;34.28;99366.22;4320588;33;34260;-60
2023/04/07 01:23:58;;;;;;;7.95;2.80;;;;;;;23.31;34.31;99361.81;4332365;33;34459;-60
2023/04/07 01:26:31;;;;;;;7.53;2.85;;;;;;;23.32;34.32;99366.22;4345876;33;33554;-61
2023/04/07 01:29:25;;;;;;;5.78;2.72;;;;;;;23.31;34.34;99369.97;4332864;33;33505;-60
2023/04/07 01:31:57;;;;;;;5.93;3.08;;;;;;;23.32;34.32;99363.47;4332280;33;34176;-60
2023/04/07 01:34:25;;;;;;;4.75;2.70;;;;;;;23.29;34.36;99357.69;4345785;33;33682;-61
2023/04/07 01:36:54;;;;;;;5.65;2.97;;;;;;;23.29;34.40;99360.41;4345641;33;33973;-60
2023/04/07 01:39:21;;;;;;;6.53;2.83;;;;;;;23.27;34.42;99349.75;4320278;33;34067;-60
2023/04/07 01:41:51;;;;;;;4.35;2.70;;;;;;;23.28;34.41;99356.84;4334787;33;34256;-61
2023/04/07 01:44:38;;;;;;;4.93;2.78;;;;;;;23.29;34.39;99357.69;4322977;33;33513;-61
2023/04/07 01:47:05;;;;;;;5.75;2.87;;;;;;;23.31;34.38;99356.34;4334301;33;34135;-61
2023/04/07 01:49:34;;;;;;;5.20;2.70;;;;;;;23.28;34.48;99343.25;4334391;33;34822;-60
2023/04/07 01:52:01;;;;;;;4.40;2.62;;;;;;;23.27;34.45;99348.91;4322473;33;34801;-61
2023/04/07 01:54:30;;;;;;;4.62;2.47;;;;;;;23.28;34.44;99347.84;4319678;33;33891;-60
2023/04/07 01:56:57;;;;;;;5.22;2.83;;;;;;;23.27;34.43;99351.63;4319817;33;34242;-60
2023/04/07 01:59:25;;;;;;;4.62;2.87;;;;;;;23.26;34.42;99349.97;4333103;33;33913;-60
2023/04/07 02:01:53;;;;;;;6.25;3.10;;;;;;;23.28;34.45;99356.84;4332914;33;34304;-61
2023/04/07 02:04:37;;;;;;;5.03;2.78;;;;;;;23.27;34.43;99352.47;4332813;33;33985;-60
2023/04/07 02:07:10;;;;;;;5.97;2.75;;;;;;;23.27;34.43;99352.47;4320216;33;33612;-60
2023/04/07 02:09:38;;;;;;;6.53;3.05;;;;;;;23.25;34.47;99349.16;4319933;33;33659;-61
2023/04/07 02:12:08;;;;;;;4.03;2.40;;;;;;;23.25;34.49;99353.75;4307570;33;33434;-61
2023/04/07 02:14:35;;;;;;;5.32;3.05;;;;;;;23.24;34.52;99360.28;4308036;33;33250;-60
2023/04/07 02:17:04;;;;;;;4.75;2.65;;;;;;;23.25;34.52;99362.75;4319452;33;34136;-60
2023/04/07 02:19:34;;;;;;;4.35;2.47;;;;;;;23.24;34.55;99357.56;4307650;33;33951;-61
2023/04/07 02:22:02;;;;;;;5.18;2.67;;;;;;;23.23;34.56;99354.00;4319783;33;34295;-60
2023/04/07 02:24:30;;;;;;;3.65;2.47;;;;;;;23.24;34.58;99355.66;4319247;33;34411;-61
2023/04/07 02:26:59;;;;;;;6.18;2.60;;;;;;;23.24;34.59;99360.28;4319390;33;34348;-61
2023/04/07 02:29:27;;;;;;;5.70;2.40;;;;;;;23.22;34.62;99354.22;4332778;33;34184;-61
2023/04/07 02:31:55;;;;;;;4.35;2.65;;;;;;;23.20;34.69;99361.81;4332601;33;33698;-61
2023/04/07 02:34:22;;;;;;;5.43;3.15;;;;;;;23.15;34.79;99357.91;4332638;33;33740;-61
2023/04/07 02:36:50;;;;;;;4.03;2.50;;;;;;;23.13;34.83;99360.03;4332701;33;34186;-61
2023/04/07 02:39:18;;;;;;;4.57;2.60;;;;;;;23.12;34.88;99354.81;4332458;33;33920;-61
2023/04/07 02:41:45;;;;;;;4.82;2.72;;;;;;;23.09;34.88;99358.84;4332672;33;34364;-61
2023/04/07 02:44:13;;;;;;;4.55;2.58;;;;;;;23.09;34.93;99356.13;4332722;33;33365;-61
2023/04/07 02:46:42;;;;;;;5.32;2.65;;;;;;;23.12;34.88;99358.34;4332428;33;34086;-60
2023/04/07 02:49:09;;;;;;;5.00;2.50;;;;;;;23.15;34.81;99352.44;4332872;33;34033;-60
2023/04/07 02:51:37;;;;;;;9.25;2.30;;;;;;;23.13;34.84;99351.88;4328346;33;35335;-61
2023/04/07 02:54:05;;;;;;;4.37;2.75;;;;;;;23.10;34.90;99352.34;4347193;33;34413;-61
2023/04/07 02:56:32;;;;;;;5.37;2.45;;;;;;;23.08;34.94;99348.19;4347258;33;34119;-60
2023/04/07 02:59:00;;;;;;;5.45;2.67;;;;;;;23.06;34.95;99355.75;4347343;33;34910;-61
2023/04/07 03:01:28;;;;;;;4.35;2.60;;;;;;;23.07;34.96;99349.25;4347148;33;34497;-60
2023/04/07 03:03:55;;;;;;;4.70;2.67;;;;;;;23.07;34.93;99349.25;4347307;33;33222;-60
2023/04/07 03:06:25;;;;;;;4.62;2.83;;;;;;;23.07;34.95;99351.97;4333878;33;34388;-60
2023/04/07 03:08:53;;;;;;;4.00;2.47;;;;;;;23.05;35.00;99351.38;4347270;33;33683;-60
2023/04/07 03:11:21;;;;;;;4.65;2.40;;;;;;;23.03;35.02;99348.88;4347404;33;34140;-61
2023/04/07 03:13:49;;;;;;;4.90;2.70;;;;;;;23.01;35.05;99348.31;4347473;33;33765;-61
2023/04/07 03:16:16;;;;;;;4.62;2.35;;;;;;;23.01;35.05;99344.75;4347199;33;34492;-60
2023/04/07 03:18:45;;;;;;;4.40;2.55;;;;;;;23.01;35.04;99353.75;4347269;33;34774;-61
2023/04/07 03:21:13;;;;;;;4.40;2.70;;;;;;;23.02;35.03;99349.12;4347395;33;33648;-61
2023/04/07 03:23:40;;;;;;;4.80;2.55;;;;;;;23.02;35.06;99352.66;4347368;33;33486;-60
2023/04/07 03:26:08;;;;;;;4.70;2.50;;;;;;;23.00;35.05;99346.66;4333661;33;34096;-60
2023/04/07 03:28:36;;;;;;;5.12;2.90;;;;;;;23.01;35.05;99350.19;4347188;33;34020;-61
2023/04/07 03:31:04;;;;;;;4.65;2.70;;;;;;;23.00;35.04;99354.81;4347356;33;34352;-61
2023/04/07 03:33:32;;;;;;;4.12;2.65;;;;;;;22.99;35.06;99355.88;4347113;33;34343;-60
2023/04/07 03:36:00;;;;;;;5.07;2.60;;;;;;;23.01;35.01;99342.84;4347198;33;33835;-61
2023/04/07 03:38:28;;;;;;;4.05;2.25;;;;;;;23.04;35.01;99347.84;4347309;33;34712;-60
2023/04/07 03:40:56;;;;;;;3.87;2.25;;;;;;;23.05;35.00;99348.66;4333926;33;34086;-60
2023/04/07 03:43:24;;;;;;;4.03;2.37;;;;;;;23.02;35.08;99346.41;4346856;33;34279;-60
2023/04/07 03:45:52;;;;;;;5.30;2.67;;;;;;;22.99;35.13;99345.00;4346925;33;34853;-60
2023/04/07 03:48:20;;;;;;;3.55;2.47;;;;;;;22.96;35.15;99340.00;4346969;33;33958;-60
2023/04/07 03:50:50;;;;;;;4.68;2.50;;;;;;;22.95;35.17;99330.19;4342622;33;34719;-60
2023/04/07 03:53:18;;;;;;;4.35;2.53;;;;;;;22.96;35.16;99337.28;4332476;33;33737;-60
2023/04/07 03:55:46;;;;;;;10.68;3.35;;;;;;;22.94;35.18;99331.25;4332415;33;33385;-60
2023/04/07 03:58:15;;;;;;;4.27;2.73;;;;;;;22.94;35.22;99341.28;4332237;33;34109;-60
2023/04/07 04:00:45;;;;;;;3.85;2.47;;;;;;;22.95;35.22;99342.97;4332446;33;34282;-60
2023/04/07 04:03:13;;;;;;;5.15;2.60;;;;;;;22.94;35.22;99344.84;4331638;33;34302;-61
2023/04/07 04:05:41;;;;;;;3.72;2.37;;;;;;;22.93;35.25;99345.91;4332168;33;34206;-60
2023/04/07 04:08:10;;;;;;;5.87;2.70;;;;;;;22.93;35.26;99351.34;4332256;33;34661;-60
2023/04/07 04:10:38;;;;;;;5.20;2.45;;;;;;;22.94;35.22;99347.56;4332364;33;34875;-60
2023/04/07 04:13:06;;;;;;;3.53;2.10;;;;;;;22.96;35.19;99350.06;4331908;33;34511;-61
2023/04/07 04:15:34;;;;;;;4.57;2.45;;;;;;;22.96;35.22;99347.34;4332292;33;34831;-61
2023/04/07 04:18:02;;;;;;;4.55;2.42;;;;;;;22.95;35.24;99351.16;4331867;33;34187;-60
2023/04/07 04:20:30;;;;;;;3.85;2.30;;;;;;;22.95;35.26;99346.53;4332016;33;34014;-60
2023/04/07 04:22:57;;;;;;;4.90;2.53;;;;;;;22.93;35.29;99351.34;4331965;33;34333;-60
2023/04/07 04:25:25;;;;;;;7.47;2.62;;;;;;;22.94;35.29;99357.62;4331788;33;34043;-61
2023/04/07 04:27:53;;;;;;;4.75;2.75;;;;;;;22.92;35.30;99366.84;4332134;33;33700;-60
2023/04/07 04:30:21;;;;;;;3.75;2.25;;;;;;;22.92;35.31;99355.16;4332132;33;34124;-60
2023/04/07 04:32:49;;;;;;;4.00;2.17;;;;;;;22.90;35.30;99360.84;4332002;33;34300;-61
2023/04/07 04:35:18;;;;;;;3.67;2.28;;;;;;;22.89;35.31;99367.31;4332014;33;34735;-60
2023/04/07 04:37:46;;;;;;;3.33;2.12;;;;;;;22.90;35.29;99368.16;4332061;33;34166;-60
2023/04/07 04:40:14;;;;;;;8.20;2.70;;;;;;;22.95;35.22;99368.28;4318570;33;34968;-60
2023/04/07 04:42:43;;;;;;;3.70;2.28;;;;;;;22.95;35.22;99375.63;4331651;33;33684;-60
2023/04/07 04:45:11;;;;;;;4.37;2.60;;;;;;;22.96;35.20;99371.84;4332070;33;34336;-60
2023/04/07 04:47:40;;;;;;;4.87;2.85;;;;;;;22.95;35.17;99371.00;4331705;33;34361;-60
2023/04/07 04:50:08;;;;;;;4.93;2.55;;;;;;;22.96;35.18;99375.37;4331916;33;35112;-60
2023/04/07 04:52:38;;;;;;;4.72;2.40;;;;;;;22.95;35.17;99376.44;4346461;33;33097;-60
2023/04/07 04:55:07;;;;;;;;;;;;;;;22.95;35.17;99373.72;4346523;33;34858;-60
2023/04/07 04:57:35;;;;;;;4.97;2.45;;;;;;;23.05;35.03;99378.59;4346615;33;34918;-60
2023/04/07 05:00:06;;;;;;;3.53;2.10;;;;;;;22.99;35.16;99387.69;4346604;33;34943;-60
2023/04/07 05:02:35;;;;;;;3.78;2.30;;;;;;;22.97;35.19;99382.47;4346410;33;33406;-60
2023/04/07 05:05:04;;;;;;;;;;;;;;;22.96;35.22;99378.09;4346559;33;33791;-60
2023/04/07 05:07:32;;;;;;;5.07;2.60;;;;;;;23.03;35.06;99380.72;4346385;33;33977;-60
2023/04/07 05:10:00;;;;;;;4.32;2.53;;;;;;;22.98;35.21;99381.41;4332744;33;33676;-60
2023/04/07 05:12:29;;;;;;;5.12;2.53;;;;;;;22.94;35.26;99385.66;4346346;33;34373;-61
2023/04/07 05:14:57;;;;;;;5.18;2.50;;;;;;;22.94;35.27;99396.53;4346564;33;34593;-60
2023/04/07 05:17:24;;;;;;;4.18;2.58;;;;;;;22.94;35.32;99401.97;4347758;33;34391;-60
2023/04/07 05:19:52;;;;;;;4.78;2.67;;;;;;;22.93;35.32;99397.59;4348204;33;34087;-61
2023/04/07 05:22:21;;;;;;;4.47;2.75;;;;;;;22.93;35.30;99394.88;4347715;33;33662;-60
2023/04/07 05:24:50;;;;;;;4.28;2.22;;;;;;;22.92;35.31;99380.47;4345268;33;34800;-61
2023/04/07 05:27:17;;;;;;;3.83;2.25;;;;;;;22.94;35.30;99379.38;4339055;33;34805;-60
2023/04/07 05:29:45;;;;;;;3.97;2.30;;;;;;;22.90;35.36;99398.09;4338797;33;34341;-60
2023/04/07 05:32:14;;;;;;;3.53;2.25;;;;;;;22.88;35.39;99405.59;4339633;33;33653;-60
2023/04/07 05:34:42;;;;;;;4.25;2.30;;;;;;;22.84;35.44;99413.41;4344848;33;33470;-60
2023/04/07 05:37:09;;;;;;;4.30;2.30;;;;;;;22.82;35.48;99417.44;4348022;33;33878;-60
2023/04/07 05:39:37;;;;;;;3.45;2.05;;;;;;;22.81;35.52;99411.16;4341767;33;34948;-60
2023/04/07 05:42:05;;;;;;;3.62;2.20;;;;;;;22.82;35.50;99411.97;4320092;33;33786;-61
2023/04/07 05:44:33;;;;;;;4.40;2.37;;;;;;;22.80;35.51;99408.66;4332997;33;34805;-60
2023/04/07 05:47:04;;;;;;;3.75;2.35;;;;;;;22.80;35.52;99412.22;4333016;33;34127;-60
2023/04/07 05:49:32;;;;;;;4.07;2.20;;;;;;;22.79;35.53;99407.81;4337009;33;34363;-60
2023/04/07 05:52:02;;;;;;;5.15;2.62;;;;;;;22.79;35.53;99410.53;4344905;33;33461;-60
2023/04/07 05:54:30;;;;;;;3.70;2.30;;;;;;;22.78;35.54;99408.88;4340992;33;33995;-60
2023/04/07 05:56:58;;;;;;;3.85;2.37;;;;;;;22.79;35.54;99417.88;4338988;33;34094;-61
2023/04/07 05:59:27;;;;;;;4.20;2.20;;;;;;;22.76;35.56;99415.63;4340173;33;34526;-60
2023/04/07 06:01:57;;;;;;;4.25;2.35;;;;;;;22.79;35.53;99415.16;4334643;33;33580;-60
2023/04/07 06:04:25;;;;;;;3.47;1.95;;;;;;;22.78;35.54;99410.78;4347468;33;34852;-60
2023/04/07 06:06:54;;;;;;;5.78;2.30;;;;;;;22.76;35.56;99411.03;4334546;33;34803;-60
2023/04/07 06:09:21;;;;;;;7.85;2.33;;;;;;;22.77;35.59;99411.84;4347525;33;34288;-60
2023/04/07 06:11:49;;;;;;;4.57;2.53;;;;;;;22.76;35.61;99411.03;4347641;33;34256;-60
2023/04/07 06:14:18;;;;;;;4.22;2.37;;;;;;;22.76;35.60;99411.03;4347494;33;34520;-60
2023/04/07 06:16:45;;;;;;;3.92;2.12;;;;;;;22.75;35.61;99409.34;4341621;33;34007;-60
2023/04/07 06:19:13;;;;;;;5.32;2.25;;;;;;;22.75;35.62;99414.78;4340614;33;34097;-60
2023/04/07 06:21:40;;;;;;;3.87;2.17;;;;;;;22.76;35.62;99404.75;4344689;33;33559;-60
2023/04/07 06:24:08;;;;;;;3.12;2.00;;;;;;;22.75;35.62;99403.06;4347437;33;33936;-60
2023/04/07 06:26:36;;;;;;;4.32;2.28;;;;;;;22.75;35.62;99400.34;4346939;33;34744;-60
2023/04/07 06:29:03;;;;;;;16.23;2.22;;;;;;;22.75;35.61;99403.91;4347645;33;34050;-60
2023/04/07 06:31:31;;;;;;;4.70;2.45;;;;;;;22.74;35.60;99407.69;4334110;33;33221;-61
2023/04/07 06:33:59;;;;;;;4.78;1.92;;;;;;;22.75;35.63;99408.50;4333867;33;34728;-61
2023/04/07 06:36:27;;;;;;;3.10;2.00;;;;;;;22.75;35.66;99408.50;4347424;33;34025;-60
2023/04/07 06:38:55;;;;;;;7.00;2.10;;;;;;;22.76;35.64;99412.91;4334037;33;34786;-60
2023/04/07 06:41:23;;;;;;;3.75;2.08;;;;;;;22.74;35.64;99406.87;4321861;33;33555;-60
2023/04/07 06:43:50;;;;;;;4.75;2.37;;;;;;;22.72;35.67;99422.59;4347369;33;34780;-60
2023/04/07 06:46:18;;;;;;;2.75;1.87;;;;;;;22.73;35.70;99421.53;4347305;33;33993;-60
2023/04/07 06:48:46;;;;;;;3.78;2.20;;;;;;;22.70;35.72;99424.69;4321424;33;33989;-60
2023/04/07 06:51:13;;;;;;;3.75;2.22;;;;;;;22.69;35.73;99423.88;4345285;32;34472;-60
2023/04/07 06:53:43;;;;;;;11.20;2.15;;;;;;;22.70;35.76;99427.41;4347276;33;34061;-61
2023/04/07 06:56:10;;;;;;;4.40;1.80;;;;;;;22.71;35.79;99426.34;4347159;33;33935;-60
2023/04/07 06:58:38;;;;;;;4.78;2.08;;;;;;;22.70;35.77;99424.69;4347211;33;34919;-60
2023/04/07 07:01:06;;;;;;;3.08;2.12;;;;;;;22.69;35.81;99429.31;4333980;33;33505;-60
2023/04/07 07:03:33;;;;;;;3.90;2.20;;;;;;;22.70;35.79;99433.69;4347026;33;33839;-60
2023/04/07 07:06:01;;;;;;;4.32;2.20;;;;;;;22.74;35.76;99444.94;4347137;33;34177;-60
2023/04/07 07:08:29;;;;;;;3.60;2.10;;;;;;;22.75;35.72;99441.16;4333795;33;34086;-60
2023/04/07 07:10:57;;;;;;;4.80;2.00;;;;;;;22.78;35.71;99446.16;4347098;33;33797;-61
2023/04/07 07:13:25;;;;;;;4.12;2.30;;;;;;;22.77;35.72;99445.31;4347540;33;33503;-60
2023/04/07 07:15:53;;;;;;;3.97;2.08;;;;;;;22.79;35.73;99453.25;4334051;33;33919;-61
2023/04/07 07:18:20;;;;;;;4.65;2.42;;;;;;;22.79;35.69;99456.78;4346726;33;33815;-60
2023/04/07 07:20:49;;;;;;;4.50;2.30;;;;;;;22.79;35.69;99454.06;4347188;33;33896;-63
2023/04/07 07:23:16;;;;;;;4.72;1.90;;;;;;;22.81;35.70;99456.56;4346996;33;34047;-59
2023/04/07 07:25:44;;;;;;;3.95;2.33;;;;;;;22.81;35.70;99453.84;4340320;33;223042;-59
2023/04/07 07:28:12;;;;;;;5.72;2.83;;;;;;;22.83;35.68;99468.03;4347009;33;34640;-60
2023/04/07 07:30:40;;;;;;;4.18;2.28;;;;;;;22.83;35.58;99466.16;4346931;33;33257;-59
2023/04/07 07:33:08;;;;;;;6.25;2.40;;;;;;;22.83;35.46;99466.16;4333694;33;34412;-60
2023/04/07 07:35:36;;;;;;;5.05;2.45;;;;;;;22.85;35.41;99474.09;4333598;33;34154;-60
2023/04/07 07:38:04;;;;;;;5.28;2.40;;;;;;;22.84;35.40;99475.13;4345952;33;33891;-60
2023/04/07 07:40:32;;;;;;;15.32;7.87;;;;;;;22.85;35.39;99476.81;4347049;33;34442;-62
2023/04/07 07:42:59;;;;;;;10.02;6.03;;;;;;;22.86;33.95;99484.75;4347216;33;33971;-62
2023/04/07 07:45:27;;;;;;;7.85;4.28;;;;;;;22.82;34.05;99485.44;4346757;33;33746;-63
2023/04/07 07:47:54;;;;;;;10.20;3.53;;;;;;;22.82;34.45;99483.53;4347129;33;34028;-62
2023/04/07 07:50:22;;;;;;;8.38;3.87;;;;;;;22.84;34.39;99486.00;4346877;33;34444;-62
2023/04/07 07:52:50;;;;;;;5.60;3.30;;;;;;;22.89;34.27;99481.56;4346788;33;34594;-62
2023/04/07 07:55:18;;;;;;;6.03;3.20;;;;;;;22.97;34.26;99490.47;4346892;33;34864;-62
2023/04/07 07:57:45;;;;;;;7.80;3.42;;;;;;;23.00;34.30;99485.41;4333629;33;34336;-63
2023/04/07 08:00:13;;;;;;;9.93;3.42;;;;;;;23.06;34.31;99492.66;4333632;33;33190;-62
2023/04/07 08:02:40;;;;;;;7.85;3.33;;;;;;;23.14;34.26;99494.22;4333952;33;33794;-62
2023/04/07 08:05:08;;;;;;;6.55;3.05;;;;;;;23.22;34.20;99502.03;4346890;33;33764;-62
2023/04/07 08:07:36;;;;;;;7.18;3.53;;;;;;;23.32;34.15;99512.38;4346600;33;34089;-62
2023/04/07 08:10:04;;;;;;;6.50;3.25;;;;;;;23.42;34.06;99509.91;4333382;33;34440;-62
2023/04/07 08:12:32;;;;;;;5.87;3.25;;;;;;;23.52;33.97;99521.06;4346759;33;33824;-62
2023/04/07 08:14:59;;;;;;;5.22;3.12;;;;;;;23.63;33.92;99524.88;4346472;33;34103;-63
2023/04/07 08:17:27;;;;;;;5.78;2.75;;;;;;;23.73;33.95;99513.41;4343572;33;34563;-62
2023/04/07 08:19:55;;;;;;;4.97;2.70;;;;;;;23.84;33.91;99513.44;4345969;33;33596;-63
2023/04/07 08:22:22;;;;;;;5.40;3.12;;;;;;;23.93;33.83;99514.75;4346584;33;33769;-62
2023/04/07 08:24:50;;;;;;;7.07;2.95;;;;;;;24.04;33.73;99517.72;4346750;33;33682;-63
2023/04/07 08:27:17;;;;;;;7.05;3.33;;;;;;;24.13;33.64;99524.47;4320825;33;33136;-63
2023/04/07 08:29:45;;;;;;;6.80;3.40;;;;;;;24.19;33.58;99524.31;4346521;33;33595;-63
2023/04/07 08:32:13;;;;;;;9.80;3.42;;;;;;;24.27;33.58;99527.78;4346540;33;33455;-62
2023/04/07 08:34:40;;;;;;;6.93;2.83;;;;;;;24.33;33.54;99524.06;4346493;33;34922;-63
2023/04/07 08:37:08;;;;;;;4.68;2.95;;;;;;;24.39;33.51;99515.81;4346229;33;34836;-63
2023/04/07 08:39:36;;;;;;;9.90;3.12;;;;;;;24.48;33.46;99516.28;4346374;33;33628;-62
2023/04/07 08:42:03;;;;;;;9.02;3.58;;;;;;;24.57;33.42;99520.25;4332980;33;34037;-63
2023/04/07 08:44:31;;;;;;;7.47;3.15;;;;;;;24.65;33.40;99521.81;4346184;33;33882;-63
2023/04/07 08:46:59;;;;;;;6.60;3.37;;;;;;;24.73;33.31;99523.34;4332895;33;33732;-63
2023/04/07 08:49:28;;;;;;;11.52;2.97;;;;;;;24.82;33.25;99532.78;4332678;33;33824;-62
2023/04/07 08:51:56;;;;;;;7.93;3.28;;;;;;;24.88;33.21;99540.81;4322079;33;33767;-63
2023/04/07 08:54:24;;;;;;;7.72;3.08;;;;;;;24.94;33.15;99539.84;4306403;33;34053;-63
2023/04/07 08:56:51;;;;;;;7.53;3.10;;;;;;;24.99;33.07;99530.09;4331557;33;34845;-63
2023/04/07 08:59:24;;;;;;;5.37;3.22;;;;;;;25.04;33.07;99532.94;4331294;33;34048;-62
2023/04/07 09:01:53;;;;;;;7.72;3.28;;;;;;;25.11;33.02;99533.66;4331681;33;33991;-63
2023/04/07 09:04:22;;;;;;;5.80;2.80;;;;;;;25.18;32.97;99531.59;4318125;33;35441;-63
2023/04/07 09:06:49;;;;;;;6.95;3.40;;;;;;;25.24;32.92;99529.81;4331116;33;34851;-62
2023/04/07 09:09:17;;;;;;;5.18;3.42;;;;;;;25.31;32.82;99525.00;4331185;33;33269;-62
2023/04/07 09:11:46;;;;;;;5.32;3.20;;;;;;;25.38;32.73;99528.44;4330974;33;34393;-63
2023/04/07 09:14:15;;;;;;;5.55;3.08;;;;;;;25.44;32.69;99536.44;4321834;33;34156;-62
2023/04/07 09:16:42;;;;;;;7.32;3.33;;;;;;;25.51;32.60;99524.53;4329360;33;34218;-62
2023/04/07 09:19:10;;;;;;;6.95;3.05;;;;;;;25.56;32.57;99520.00;4345397;33;33391;-62
2023/04/07 09:21:51;;;;;;;8.15;3.45;;;;;;;25.61;32.54;99524.72;4345866;33;33942;-63
2023/04/07 09:24:23;;;;;;;7.72;3.00;;;;;;;25.66;32.53;99522.09;4332607;33;34515;-62
2023/04/07 09:27:10;;;;;;;7.87;3.05;;;;;;;25.67;32.51;99516.34;4345846;33;33955;-63
2023/04/07 09:29:42;;;;;;;5.35;3.20;;;;;;;25.71;32.43;99524.88;4345741;33;33443;-63
2023/04/07 09:32:09;;;;;;;7.62;3.47;;;;;;;25.73;32.43;99525.47;4345666;33;33860;-62
2023/04/07 09:34:38;;;;;;;8.75;3.50;;;;;;;25.73;32.41;99527.38;4345575;33;34648;-62
2023/04/07 09:37:10;;;;;;;7.30;2.97;;;;;;;25.73;32.42;99532.84;4332363;33;34230;-63
2023/04/07 09:39:51;;;;;;;6.15;2.78;;;;;;;25.73;32.45;99519.16;4332549;33;33384;-62
2023/04/07 09:42:19;;;;;;;6.05;3.17;;;;;;;25.75;32.45;99527.97;4345413;33;34723;-64
2023/04/07 09:44:47;;;;;;;6.18;3.12;;;;;;;25.72;32.45;99526.53;4332126;33;34005;-63
2023/04/07 09:47:14;;;;;;;7.22;3.30;;;;;;;25.69;32.51;99521.56;4320296;33;34079;-63
2023/04/07 09:49:51;;;;;;;6.05;3.03;;;;;;;25.68;32.51;99531.66;4332057;33;33839;-63
2023/04/07 09:52:22;;;;;;;6.30;2.87;;;;;;;25.66;32.50;99530.28;4331876;33;33604;-63
2023/04/07 09:54:50;;;;;;;8.00;3.03;;;;;;;25.63;32.54;99528.03;4305637;33;33906;-63
2023/04/07 09:57:17;;;;;;;6.50;2.67;;;;;;;25.62;32.56;99535.41;4305218;33;34784;-63
2023/04/07 09:59:45;;;;;;;6.00;3.10;;;;;;;25.61;32.58;99533.75;4317338;33;34367;-63
2023/04/07 10:02:15;;;;;;;7.25;3.60;;;;;;;25.58;32.64;99531.50;4319550;33;33960;-64
2023/04/07 10:04:43;;;;;;;8.40;4.03;;;;;;;25.55;32.63;99526.53;4332843;33;33670;-64
2023/04/07 10:07:11;;;;;;;7.82;3.42;;;;;;;25.53;32.62;99539.62;4318253;33;33135;-64
2023/04/07 10:09:40;;;;;;;6.45;3.30;;;;;;;25.50;32.55;99533.81;4333880;33;33845;-64
2023/04/07 10:12:08;;;;;;;8.75;3.87;;;;;;;25.46;32.55;99536.22;4322247;33;34024;-65
2023/04/07 10:14:35;;;;;;;7.60;3.80;;;;;;;25.42;32.57;99527.69;4321617;33;33981;-64
2023/04/07 10:17:03;;;;;;;9.40;3.08;;;;;;;25.40;32.58;99534.47;4333578;33;34145;-64
2023/04/07 10:19:32;;;;;;;10.65;3.87;;;;;;;25.37;32.60;99526.78;4333640;33;33614;-59
2023/04/07 10:22:00;;;;;;;8.88;3.70;;;;;;;25.33;32.61;99531.91;4334107;33;34058;-60
2023/04/07 10:24:44;;;;;;;12.48;3.80;;;;;;;25.31;32.62;99527.75;4321819;33;33849;-60
2023/04/07 10:27:15;;;;;;;6.78;3.80;;;;;;;25.30;32.62;99534.28;4347332;33;34087;-60
2023/04/07 10:29:45;;;;;;;10.40;4.50;;;;;;;25.24;32.65;99535.28;4333978;33;34366;-61
2023/04/07 10:32:13;;;;;;;11.02;3.70;;;;;;;25.22;32.62;99530.03;4334130;33;34053;-60
2023/04/07 10:34:47;;;;;;;8.85;3.95;;;;;;;25.17;32.66;99535.41;4344782;33;34047;-94
2023/04/07 10:37:19;;;;;;;7.35;3.72;;;;;;;25.15;32.68;99521.19;4355875;32;35004;-95
2023/04/07 10:39:50;;;;;;;9.93;4.03;;;;;;;25.11;32.70;99536.37;4331291;33;33904;-90
2023/04/07 10:42:36;;;;;;;7.97;4.35;;;;;;;25.06;32.70;99528.06;4342577;33;34790;-84
2023/04/07 10:45:05;;;;;;;10.02;4.20;;;;;;;25.05;32.68;99529.97;4355083;33;35384;-95
2023/04/07 10:47:32;;;;;;;8.40;4.07;;;;;;;24.98;32.70;99529.28;4341163;33;33981;-91
2023/04/07 10:50:19;;;;;;;12.30;4.47;;;;;;;24.94;32.66;99528.94;4353023;33;33890;-95
2023/04/07 10:52:47;;;;;;;7.72;3.95;;;;;;;24.93;32.69;99540.09;4352196;33;33888;-84
2023/04/07 10:55:47;;;;;;;9.52;3.87;;;;;;;24.89;32.69;99544.37;4352654;33;34372;-89
2023/04/07 10:58:28;;;;;;;7.15;4.00;;;;;;;24.87;32.70;99533.72;4294334;33;33568;-94
2023/04/07 11:01:13;;;;;;;7.87;4.20;;;;;;;24.82;32.75;99533.63;4358854;33;33703;-87
2023/04/07 11:03:51;;;;;;;7.72;4.30;;;;;;;24.79;32.80;99533.28;4361521;33;34890;-80
2023/04/07 11:06:19;;;;;;;8.48;4.47;;;;;;;24.72;32.82;99536.16;4348281;32;35204;-78
2023/04/07 11:08:47;;;;;;;6.82;4.03;;;;;;;24.68;32.77;99538.53;4360801;33;35543;-81
2023/04/07 11:11:40;;;;;;;7.10;3.47;;;;;;;24.67;32.81;99531.41;4359692;33;35003;-92
2023/04/07 11:14:08;;;;;;;8.52;3.92;;;;;;;24.71;32.93;99536.37;4349075;33;33944;-73
2023/04/07 11:16:42;;;;;;;6.97;4.00;;;;;;;24.81;32.89;99536.59;4355834;32;34057;-79
2023/04/07 11:19:10;;;;;;;7.05;3.85;;;;;;;24.90;32.86;99544.16;4354813;32;34783;-82
2023/04/07 11:21:38;;;;;;;5.57;3.75;;;;;;;24.99;32.80;99544.56;4342809;33;34617;-92
2023/04/07 11:24:05;;;;;;;7.57;3.92;;;;;;;25.08;32.81;99537.69;4354318;32;35328;-70
2023/04/07 11:26:40;;;;;;;7.50;3.53;;;;;;;25.18;32.79;99537.91;4341270;33;34963;-73
2023/04/07 11:29:09;;;;;;;5.72;3.62;;;;;;;25.29;32.79;99538.09;4337689;33;35405;-94
2023/04/07 11:31:37;;;;;;;7.18;3.47;;;;;;;25.35;32.79;99537.94;4353509;33;33716;-67
2023/04/07 11:34:05;;;;;;;7.75;3.15;;;;;;;25.43;32.76;99537.53;4339304;33;34297;-76
2023/04/07 11:36:34;;;;;;;5.70;3.67;;;;;;;25.50;32.75;99542.81;4338805;33;34962;-91
2023/04/07 11:39:02;;;;;;;6.32;3.47;;;;;;;25.55;32.75;99537.44;4348908;32;36723;-89
2023/04/07 11:41:31;;;;;;;6.03;3.67;;;;;;;25.61;32.71;99535.66;4349474;33;33431;-78
2023/04/07 11:44:06;;;;;;;8.90;3.72;;;;;;;25.63;32.74;99544.44;4352174;33;32890;-95